sensor_id;sensor_type;location;lat;lon;timestamp;P1;durP1;ratioP1;P2;durP2;ratioP2
52015;SDS011;38032;53.326;6.472;2022-11-18T00:00:28;33.22;;;18.08;;
52015;SDS011;38032;53.326;6.472;2022-11-18T00:02:54;32.72;;;17.33;;
52015;SDS011;38032;53.326;6.472;2022-11-18T00:05:19;33.42;;;17.27;;
52015;SDS011;38032;53.326;6.472;2022-11-18T00:07:45;34.25;;;17.67;;
52015;SDS011;38032;53.326;6.472;2022-11-18T00:10:11;29.50;;;17.33;;
52015;SDS011;38032;53.326;6.472;2022-11-18T00:12:37;32.40;;;17.13;;
52015;SDS011;38032;53.326;6.472;2022-11-18T00:15:21;32.05;;;16.65;;
52015;SDS011;38032;53.326;6.472;2022-11-18T00:17:47;29.80;;;16.92;;
52015;SDS011;38032;53.326;6.472;2022-11-18T00:20:13;30.92;;;16.38;;
52015;SDS011;38032;53.326;6.472;2022-11-18T00:22:39;27.77;;;16.45;;
52015;SDS011;38032;53.326;6.472;2022-11-18T00:25:05;27.33;;;15.95;;
52015;SDS011;38032;53.326;6.472;2022-11-18T00:27:31;28.90;;;16.40;;
52015;SDS011;38032;53.326;6.472;2022-11-18T00:29:57;27.35;;;15.10;;
52015;SDS011;38032;53.326;6.472;2022-11-18T00:32:23;26.38;;;14.98;;
52015;SDS011;38032;53.326;6.472;2022-11-18T00:34:49;29.75;;;16.33;;
52015;SDS011;38032;53.326;6.472;2022-11-18T00:37:14;28.38;;;15.77;;
52015;SDS011;38032;53.326;6.472;2022-11-18T00:39:40;27.33;;;15.40;;
52015;SDS011;38032;53.326;6.472;2022-11-18T00:42:06;26.92;;;15.55;;
52015;SDS011;38032;53.326;6.472;2022-11-18T00:44:50;28.73;;;15.38;;
52015;SDS011;38032;53.326;6.472;2022-11-18T00:47:16;28.83;;;15.75;;
52015;SDS011;38032;53.326;6.472;2022-11-18T00:49:42;29.13;;;15.38;;
52015;SDS011;38032;53.326;6.472;2022-11-18T00:52:08;27.15;;;16.60;;
52015;SDS011;38032;53.326;6.472;2022-11-18T00:54:34;27.58;;;15.63;;
52015;SDS011;38032;53.326;6.472;2022-11-18T00:56:59;26.90;;;15.85;;
52015;SDS011;38032;53.326;6.472;2022-11-18T00:59:25;29.60;;;16.55;;
52015;SDS011;38032;53.326;6.472;2022-11-18T01:01:51;26.60;;;15.00;;
52015;SDS011;38032;53.326;6.472;2022-11-18T01:04:17;27.80;;;16.35;;
52015;SDS011;38032;53.326;6.472;2022-11-18T01:06:43;29.40;;;16.33;;
52015;SDS011;38032;53.326;6.472;2022-11-18T01:09:09;29.00;;;16.17;;
52015;SDS011;38032;53.326;6.472;2022-11-18T01:11:35;29.00;;;16.90;;
52015;SDS011;38032;53.326;6.472;2022-11-18T01:14:19;30.02;;;16.75;;
52015;SDS011;38032;53.326;6.472;2022-11-18T01:16:45;31.15;;;17.15;;
52015;SDS011;38032;53.326;6.472;2022-11-18T01:19:15;33.67;;;17.60;;
52015;SDS011;38032;53.326;6.472;2022-11-18T01:21:42;32.58;;;17.77;;
52015;SDS011;38032;53.326;6.472;2022-11-18T01:24:08;33.78;;;18.00;;
52015;SDS011;38032;53.326;6.472;2022-11-18T01:26:33;35.40;;;18.58;;
52015;SDS011;38032;53.326;6.472;2022-11-18T01:28:59;37.35;;;18.60;;
52015;SDS011;38032;53.326;6.472;2022-11-18T01:31:25;39.13;;;17.63;;
52015;SDS011;38032;53.326;6.472;2022-11-18T01:33:51;32.47;;;18.05;;
52015;SDS011;38032;53.326;6.472;2022-11-18T01:36:18;41.20;;;18.40;;
52015;SDS011;38032;53.326;6.472;2022-11-18T01:38:46;36.40;;;18.10;;
52015;SDS011;38032;53.326;6.472;2022-11-18T01:41:13;37.75;;;18.40;;
52015;SDS011;38032;53.326;6.472;2022-11-18T01:43:47;38.63;;;19.42;;
52015;SDS011;38032;53.326;6.472;2022-11-18T01:46:15;35.30;;;17.83;;
52015;SDS011;38032;53.326;6.472;2022-11-18T01:48:41;37.67;;;19.08;;
52015;SDS011;38032;53.326;6.472;2022-11-18T01:51:10;36.67;;;18.77;;
52015;SDS011;38032;53.326;6.472;2022-11-18T01:53:40;41.65;;;19.65;;
52015;SDS011;38032;53.326;6.472;2022-11-18T01:56:11;41.20;;;19.92;;
52015;SDS011;38032;53.326;6.472;2022-11-18T01:58:43;41.58;;;20.98;;
52015;SDS011;38032;53.326;6.472;2022-11-18T02:01:18;44.25;;;20.63;;
52015;SDS011;38032;53.326;6.472;2022-11-18T02:03:44;43.50;;;19.90;;
52015;SDS011;38032;53.326;6.472;2022-11-18T02:06:12;40.88;;;20.63;;
52015;SDS011;38032;53.326;6.472;2022-11-18T02:08:38;41.63;;;21.70;;
52015;SDS011;38032;53.326;6.472;2022-11-18T02:11:09;45.08;;;22.17;;
52015;SDS011;38032;53.326;6.472;2022-11-18T02:13:54;39.97;;;20.02;;
52015;SDS011;38032;53.326;6.472;2022-11-18T02:16:21;42.75;;;20.25;;
52015;SDS011;38032;53.326;6.472;2022-11-18T02:19:00;41.92;;;19.70;;
52015;SDS011;38032;53.326;6.472;2022-11-18T02:24:39;42.90;;;20.23;;
52015;SDS011;38032;53.326;6.472;2022-11-18T02:30:14;42.25;;;20.58;;
52015;SDS011;38032;53.326;6.472;2022-11-18T02:37:47;42.95;;;19.85;;
52015;SDS011;38032;53.326;6.472;2022-11-18T02:40:19;43.50;;;21.40;;
52015;SDS011;38032;53.326;6.472;2022-11-18T02:42:51;41.28;;;20.70;;
52015;SDS011;38032;53.326;6.472;2022-11-18T02:45:22;47.95;;;21.27;;
52015;SDS011;38032;53.326;6.472;2022-11-18T02:47:50;49.08;;;21.65;;
52015;SDS011;38032;53.326;6.472;2022-11-18T02:50:20;48.65;;;22.60;;
52015;SDS011;38032;53.326;6.472;2022-11-18T02:52:51;44.22;;;21.08;;
52015;SDS011;38032;53.326;6.472;2022-11-18T02:55:20;45.50;;;22.08;;
52015;SDS011;38032;53.326;6.472;2022-11-18T02:57:47;44.90;;;21.20;;
52015;SDS011;38032;53.326;6.472;2022-11-18T03:00:14;44.47;;;21.63;;
52015;SDS011;38032;53.326;6.472;2022-11-18T03:02:41;40.50;;;20.85;;
52015;SDS011;38032;53.326;6.472;2022-11-18T03:05:12;44.42;;;21.77;;
52015;SDS011;38032;53.326;6.472;2022-11-18T03:07:45;44.55;;;22.00;;
52015;SDS011;38032;53.326;6.472;2022-11-18T03:10:16;44.42;;;21.48;;
52015;SDS011;38032;53.326;6.472;2022-11-18T03:20:51;39.38;;;19.15;;
52015;SDS011;38032;53.326;6.472;2022-11-18T03:23:34;35.95;;;17.92;;
52015;SDS011;38032;53.326;6.472;2022-11-18T03:26:15;33.15;;;17.05;;
52015;SDS011;38032;53.326;6.472;2022-11-18T03:28:58;35.60;;;18.15;;
52015;SDS011;38032;53.326;6.472;2022-11-18T03:31:46;35.55;;;17.67;;
52015;SDS011;38032;53.326;6.472;2022-11-18T03:34:18;31.67;;;17.33;;
52015;SDS011;38032;53.326;6.472;2022-11-18T03:36:50;29.80;;;16.83;;
52015;SDS011;38032;53.326;6.472;2022-11-18T03:39:19;33.85;;;16.67;;
52015;SDS011;38032;53.326;6.472;2022-11-18T03:41:48;35.95;;;18.08;;
52015;SDS011;38032;53.326;6.472;2022-11-18T03:44:20;32.20;;;17.52;;
52015;SDS011;38032;53.326;6.472;2022-11-18T03:46:54;34.72;;;17.73;;
52015;SDS011;38032;53.326;6.472;2022-11-18T03:49:26;31.65;;;17.50;;
52015;SDS011;38032;53.326;6.472;2022-11-18T03:51:57;31.70;;;17.08;;
52015;SDS011;38032;53.326;6.472;2022-11-18T03:54:30;32.35;;;17.33;;
52015;SDS011;38032;53.326;6.472;2022-11-18T03:57:07;35.70;;;17.10;;
52015;SDS011;38032;53.326;6.472;2022-11-18T03:59:39;31.45;;;17.02;;
52015;SDS011;38032;53.326;6.472;2022-11-18T04:02:13;28.73;;;16.40;;
52015;SDS011;38032;53.326;6.472;2022-11-18T04:04:43;31.88;;;17.50;;
52015;SDS011;38032;53.326;6.472;2022-11-18T04:07:19;28.10;;;15.65;;
52015;SDS011;38032;53.326;6.472;2022-11-18T04:09:59;29.80;;;16.67;;
52015;SDS011;38032;53.326;6.472;2022-11-18T04:12:34;30.75;;;17.35;;
52015;SDS011;38032;53.326;6.472;2022-11-18T04:15:06;28.63;;;17.00;;
52015;SDS011;38032;53.326;6.472;2022-11-18T04:17:32;31.77;;;17.50;;
52015;SDS011;38032;53.326;6.472;2022-11-18T04:19:58;28.48;;;15.75;;
52015;SDS011;38032;53.326;6.472;2022-11-18T04:22:24;28.92;;;16.38;;
52015;SDS011;38032;53.326;6.472;2022-11-18T04:24:50;31.23;;;16.40;;
52015;SDS011;38032;53.326;6.472;2022-11-18T04:27:15;30.10;;;16.13;;
52015;SDS011;38032;53.326;6.472;2022-11-18T04:29:41;26.33;;;15.10;;
52015;SDS011;38032;53.326;6.472;2022-11-18T04:32:07;28.25;;;15.77;;
52015;SDS011;38032;53.326;6.472;2022-11-18T04:34:33;27.55;;;15.30;;
52015;SDS011;38032;53.326;6.472;2022-11-18T04:36:59;26.23;;;14.70;;
52015;SDS011;38032;53.326;6.472;2022-11-18T04:39:25;27.27;;;15.15;;
52015;SDS011;38032;53.326;6.472;2022-11-18T04:41:51;27.35;;;15.50;;
52015;SDS011;38032;53.326;6.472;2022-11-18T04:44:23;25.10;;;14.82;;
52015;SDS011;38032;53.326;6.472;2022-11-18T04:46:51;24.25;;;15.20;;
52015;SDS011;38032;53.326;6.472;2022-11-18T04:49:17;23.48;;;14.63;;
52015;SDS011;38032;53.326;6.472;2022-11-18T04:51:43;22.92;;;13.38;;
52015;SDS011;38032;53.326;6.472;2022-11-18T04:54:10;23.55;;;13.80;;
52015;SDS011;38032;53.326;6.472;2022-11-18T04:56:37;23.20;;;14.38;;
52015;SDS011;38032;53.326;6.472;2022-11-18T04:59:04;22.60;;;13.98;;
52015;SDS011;38032;53.326;6.472;2022-11-18T05:01:30;22.95;;;12.73;;
52015;SDS011;38032;53.326;6.472;2022-11-18T05:03:58;19.98;;;13.23;;
52015;SDS011;38032;53.326;6.472;2022-11-18T05:06:26;20.33;;;12.45;;
52015;SDS011;38032;53.326;6.472;2022-11-18T05:08:52;21.55;;;13.38;;
52015;SDS011;38032;53.326;6.472;2022-11-18T05:11:18;23.38;;;12.80;;
52015;SDS011;38032;53.326;6.472;2022-11-18T05:14:03;21.35;;;13.68;;
52015;SDS011;38032;53.326;6.472;2022-11-18T05:16:29;19.52;;;13.00;;
52015;SDS011;38032;53.326;6.472;2022-11-18T05:18:54;20.48;;;13.07;;
52015;SDS011;38032;53.326;6.472;2022-11-18T05:21:20;23.40;;;13.55;;
52015;SDS011;38032;53.326;6.472;2022-11-18T05:23:46;23.08;;;13.30;;
52015;SDS011;38032;53.326;6.472;2022-11-18T05:26:12;20.45;;;13.05;;
52015;SDS011;38032;53.326;6.472;2022-11-18T05:28:38;22.75;;;12.98;;
52015;SDS011;38032;53.326;6.472;2022-11-18T05:31:07;21.45;;;13.20;;
52015;SDS011;38032;53.326;6.472;2022-11-18T05:33:35;22.50;;;13.15;;
52015;SDS011;38032;53.326;6.472;2022-11-18T05:36:02;21.83;;;13.07;;
52015;SDS011;38032;53.326;6.472;2022-11-18T05:38:30;19.95;;;13.10;;
52015;SDS011;38032;53.326;6.472;2022-11-18T05:40:57;21.20;;;12.77;;
52015;SDS011;38032;53.326;6.472;2022-11-18T05:43:23;20.60;;;12.95;;
52015;SDS011;38032;53.326;6.472;2022-11-18T05:45:49;21.42;;;13.32;;
52015;SDS011;38032;53.326;6.472;2022-11-18T05:48:16;20.33;;;12.25;;
52015;SDS011;38032;53.326;6.472;2022-11-18T05:50:45;22.63;;;13.57;;
52015;SDS011;38032;53.326;6.472;2022-11-18T05:53:12;22.33;;;13.27;;
52015;SDS011;38032;53.326;6.472;2022-11-18T05:55:41;23.33;;;13.57;;
52015;SDS011;38032;53.326;6.472;2022-11-18T05:58:21;22.08;;;13.70;;
52015;SDS011;38032;53.326;6.472;2022-11-18T06:00:47;24.50;;;14.10;;
52015;SDS011;38032;53.326;6.472;2022-11-18T06:03:18;21.52;;;12.60;;
52015;SDS011;38032;53.326;6.472;2022-11-18T06:05:47;20.92;;;13.55;;
52015;SDS011;38032;53.326;6.472;2022-11-18T06:08:14;22.95;;;12.63;;
52015;SDS011;38032;53.326;6.472;2022-11-18T06:10:42;23.15;;;13.32;;
52015;SDS011;38032;53.326;6.472;2022-11-18T06:13:13;26.83;;;14.15;;
52015;SDS011;38032;53.326;6.472;2022-11-18T06:15:44;22.58;;;13.43;;
52015;SDS011;38032;53.326;6.472;2022-11-18T06:18:15;23.60;;;13.63;;
52015;SDS011;38032;53.326;6.472;2022-11-18T06:20:50;24.77;;;13.10;;
52015;SDS011;38032;53.326;6.472;2022-11-18T06:23:19;22.80;;;13.57;;
52015;SDS011;38032;53.326;6.472;2022-11-18T06:25:45;22.63;;;13.23;;
52015;SDS011;38032;53.326;6.472;2022-11-18T06:28:12;26.63;;;13.90;;
52015;SDS011;38032;53.326;6.472;2022-11-18T06:30:40;24.50;;;13.77;;
52015;SDS011;38032;53.326;6.472;2022-11-18T06:33:08;25.98;;;13.45;;
52015;SDS011;38032;53.326;6.472;2022-11-18T06:35:34;23.52;;;13.13;;
52015;SDS011;38032;53.326;6.472;2022-11-18T06:38:00;24.25;;;13.48;;
52015;SDS011;38032;53.326;6.472;2022-11-18T06:40:26;28.40;;;14.40;;
52015;SDS011;38032;53.326;6.472;2022-11-18T06:42:52;25.77;;;14.55;;
52015;SDS011;38032;53.326;6.472;2022-11-18T06:45:36;27.65;;;14.02;;
52015;SDS011;38032;53.326;6.472;2022-11-18T06:48:02;24.75;;;13.55;;
52015;SDS011;38032;53.326;6.472;2022-11-18T06:50:28;23.52;;;13.98;;
52015;SDS011;38032;53.326;6.472;2022-11-18T06:52:54;26.27;;;14.45;;
52015;SDS011;38032;53.326;6.472;2022-11-18T06:55:23;27.95;;;13.35;;
52015;SDS011;38032;53.326;6.472;2022-11-18T06:57:49;25.73;;;14.80;;
52015;SDS011;38032;53.326;6.472;2022-11-18T07:00:15;27.33;;;14.43;;
52015;SDS011;38032;53.326;6.472;2022-11-18T07:02:41;30.30;;;15.05;;
52015;SDS011;38032;53.326;6.472;2022-11-18T07:05:07;27.05;;;15.15;;
52015;SDS011;38032;53.326;6.472;2022-11-18T07:07:34;37.30;;;16.13;;
52015;SDS011;38032;53.326;6.472;2022-11-18T07:09:59;27.38;;;14.80;;
52015;SDS011;38032;53.326;6.472;2022-11-18T07:12:25;28.05;;;14.38;;
52015;SDS011;38032;53.326;6.472;2022-11-18T07:14:51;30.88;;;15.25;;
52015;SDS011;38032;53.326;6.472;2022-11-18T07:17:17;28.52;;;14.82;;
52015;SDS011;38032;53.326;6.472;2022-11-18T07:19:43;25.95;;;12.88;;
52015;SDS011;38032;53.326;6.472;2022-11-18T07:22:09;25.85;;;13.45;;
52015;SDS011;38032;53.326;6.472;2022-11-18T07:24:35;26.52;;;13.77;;
52015;SDS011;38032;53.326;6.472;2022-11-18T07:27:02;25.83;;;13.18;;
52015;SDS011;38032;53.326;6.472;2022-11-18T07:29:27;24.52;;;13.15;;
52015;SDS011;38032;53.326;6.472;2022-11-18T07:31:53;29.20;;;14.00;;
52015;SDS011;38032;53.326;6.472;2022-11-18T07:34:19;29.25;;;14.77;;
52015;SDS011;38032;53.326;6.472;2022-11-18T07:36:45;30.73;;;13.93;;
52015;SDS011;38032;53.326;6.472;2022-11-18T07:39:11;26.38;;;13.80;;
52015;SDS011;38032;53.326;6.472;2022-11-18T07:41:38;29.80;;;14.25;;
52015;SDS011;38032;53.326;6.472;2022-11-18T07:44:05;28.00;;;14.73;;
52015;SDS011;38032;53.326;6.472;2022-11-18T07:46:32;31.67;;;13.95;;
52015;SDS011;38032;53.326;6.472;2022-11-18T07:49:00;26.17;;;13.57;;
52015;SDS011;38032;53.326;6.472;2022-11-18T07:51:28;26.80;;;14.15;;
52015;SDS011;38032;53.326;6.472;2022-11-18T07:53:56;27.88;;;15.43;;
52015;SDS011;38032;53.326;6.472;2022-11-18T07:56:22;26.42;;;14.63;;
52015;SDS011;38032;53.326;6.472;2022-11-18T07:58:52;33.28;;;15.38;;
52015;SDS011;38032;53.326;6.472;2022-11-18T08:01:20;25.77;;;14.15;;
52015;SDS011;38032;53.326;6.472;2022-11-18T08:03:48;27.58;;;13.68;;
52015;SDS011;38032;53.326;6.472;2022-11-18T08:06:15;28.42;;;13.80;;
52015;SDS011;38032;53.326;6.472;2022-11-18T08:08:43;27.70;;;14.02;;
52015;SDS011;38032;53.326;6.472;2022-11-18T08:11:11;26.70;;;14.10;;
52015;SDS011;38032;53.326;6.472;2022-11-18T08:13:38;27.60;;;14.75;;
52015;SDS011;38032;53.326;6.472;2022-11-18T08:16:10;24.25;;;13.40;;
52015;SDS011;38032;53.326;6.472;2022-11-18T08:18:38;23.85;;;13.43;;
52015;SDS011;38032;53.326;6.472;2022-11-18T08:21:04;25.70;;;14.25;;
52015;SDS011;38032;53.326;6.472;2022-11-18T08:23:30;25.58;;;13.55;;
52015;SDS011;38032;53.326;6.472;2022-11-18T08:26:00;21.40;;;12.90;;
52015;SDS011;38032;53.326;6.472;2022-11-18T08:28:28;24.92;;;12.77;;
52015;SDS011;38032;53.326;6.472;2022-11-18T08:30:54;23.45;;;12.88;;
52015;SDS011;38032;53.326;6.472;2022-11-18T08:33:19;22.92;;;12.77;;
52015;SDS011;38032;53.326;6.472;2022-11-18T08:35:45;23.98;;;12.52;;
52015;SDS011;38032;53.326;6.472;2022-11-18T08:38:11;27.13;;;13.43;;
52015;SDS011;38032;53.326;6.472;2022-11-18T08:40:38;21.17;;;12.02;;
52015;SDS011;38032;53.326;6.472;2022-11-18T08:43:08;23.00;;;12.52;;
52015;SDS011;38032;53.326;6.472;2022-11-18T08:45:36;21.20;;;11.63;;
52015;SDS011;38032;53.326;6.472;2022-11-18T08:48:03;21.95;;;12.48;;
52015;SDS011;38032;53.326;6.472;2022-11-18T08:50:29;20.92;;;12.43;;
52015;SDS011;38032;53.326;6.472;2022-11-18T08:52:55;21.10;;;11.82;;
52015;SDS011;38032;53.326;6.472;2022-11-18T08:55:21;21.23;;;12.60;;
52015;SDS011;38032;53.326;6.472;2022-11-18T08:57:47;22.67;;;11.85;;
52015;SDS011;38032;53.326;6.472;2022-11-18T09:00:14;21.75;;;11.95;;
52015;SDS011;38032;53.326;6.472;2022-11-18T09:02:41;22.42;;;12.68;;
52015;SDS011;38032;53.326;6.472;2022-11-18T09:05:07;21.58;;;12.80;;
52015;SDS011;38032;53.326;6.472;2022-11-18T09:07:33;19.27;;;12.13;;
52015;SDS011;38032;53.326;6.472;2022-11-18T09:09:59;22.08;;;12.45;;
52015;SDS011;38032;53.326;6.472;2022-11-18T09:12:25;19.08;;;11.63;;
52015;SDS011;38032;53.326;6.472;2022-11-18T09:14:50;18.25;;;12.27;;
52015;SDS011;38032;53.326;6.472;2022-11-18T09:17:16;20.50;;;12.50;;
52015;SDS011;38032;53.326;6.472;2022-11-18T09:19:42;20.65;;;11.82;;
52015;SDS011;38032;53.326;6.472;2022-11-18T09:22:09;19.13;;;11.77;;
52015;SDS011;38032;53.326;6.472;2022-11-18T09:24:34;22.25;;;11.77;;
52015;SDS011;38032;53.326;6.472;2022-11-18T09:27:02;18.38;;;11.13;;
52015;SDS011;38032;53.326;6.472;2022-11-18T09:29:29;20.35;;;11.48;;
52015;SDS011;38032;53.326;6.472;2022-11-18T09:31:55;21.30;;;12.50;;
52015;SDS011;38032;53.326;6.472;2022-11-18T09:34:22;21.83;;;12.23;;
52015;SDS011;38032;53.326;6.472;2022-11-18T09:36:48;24.65;;;13.43;;
52015;SDS011;38032;53.326;6.472;2022-11-18T09:39:14;20.95;;;12.35;;
52015;SDS011;38032;53.326;6.472;2022-11-18T09:41:44;20.98;;;11.40;;
52015;SDS011;38032;53.326;6.472;2022-11-18T09:44:33;22.13;;;12.23;;
52015;SDS011;38032;53.326;6.472;2022-11-18T09:49:44;20.95;;;12.25;;
52015;SDS011;38032;53.326;6.472;2022-11-18T09:52:15;19.88;;;11.20;;
52015;SDS011;38032;53.326;6.472;2022-11-18T09:54:41;21.27;;;11.93;;
52015;SDS011;38032;53.326;6.472;2022-11-18T09:57:12;18.83;;;11.23;;
52015;SDS011;38032;53.326;6.472;2022-11-18T09:59:41;24.85;;;11.52;;
52015;SDS011;38032;53.326;6.472;2022-11-18T10:04:37;23.30;;;11.68;;
52015;SDS011;38032;53.326;6.472;2022-11-18T10:07:05;16.83;;;10.63;;
52015;SDS011;38032;53.326;6.472;2022-11-18T10:09:40;19.50;;;11.50;;
52015;SDS011;38032;53.326;6.472;2022-11-18T10:12:19;23.23;;;11.65;;
52015;SDS011;38032;53.326;6.472;2022-11-18T10:15:02;17.77;;;10.63;;
52015;SDS011;38032;53.326;6.472;2022-11-18T10:23:04;17.90;;;10.65;;
52015;SDS011;38032;53.326;6.472;2022-11-18T10:25:39;23.15;;;11.30;;
52015;SDS011;38032;53.326;6.472;2022-11-18T10:28:14;18.63;;;10.73;;
52015;SDS011;38032;53.326;6.472;2022-11-18T10:30:42;19.42;;;11.18;;
52015;SDS011;38032;53.326;6.472;2022-11-18T10:33:22;17.70;;;10.32;;
52015;SDS011;38032;53.326;6.472;2022-11-18T10:35:51;18.25;;;11.13;;
52015;SDS011;38032;53.326;6.472;2022-11-18T10:38:34;21.73;;;11.27;;
52015;SDS011;38032;53.326;6.472;2022-11-18T10:41:01;21.60;;;12.18;;
52015;SDS011;38032;53.326;6.472;2022-11-18T10:44:00;20.42;;;12.20;;
52015;SDS011;38032;53.326;6.472;2022-11-18T10:46:26;20.35;;;12.15;;
52015;SDS011;38032;53.326;6.472;2022-11-18T10:51:33;20.98;;;12.82;;
52015;SDS011;38032;53.326;6.472;2022-11-18T10:54:08;24.42;;;13.25;;
52015;SDS011;38032;53.326;6.472;2022-11-18T10:59:27;21.02;;;11.30;;
52015;SDS011;38032;53.326;6.472;2022-11-18T11:01:57;20.38;;;13.07;;
52015;SDS011;38032;53.326;6.472;2022-11-18T11:04:26;24.50;;;12.95;;
52015;SDS011;38032;53.326;6.472;2022-11-18T11:06:53;22.73;;;13.70;;
52015;SDS011;38032;53.326;6.472;2022-11-18T11:09:25;23.90;;;12.02;;
52015;SDS011;38032;53.326;6.472;2022-11-18T11:11:55;22.77;;;12.75;;
52015;SDS011;38032;53.326;6.472;2022-11-18T11:14:25;22.13;;;11.68;;
52015;SDS011;38032;53.326;6.472;2022-11-18T11:17:08;19.52;;;11.75;;
52015;SDS011;38032;53.326;6.472;2022-11-18T11:22:23;19.10;;;11.32;;
52015;SDS011;38032;53.326;6.472;2022-11-18T11:24:49;19.33;;;12.15;;
52015;SDS011;38032;53.326;6.472;2022-11-18T11:27:20;22.05;;;12.55;;
52015;SDS011;38032;53.326;6.472;2022-11-18T11:29:52;22.17;;;12.98;;
52015;SDS011;38032;53.326;6.472;2022-11-18T11:32:31;21.52;;;12.23;;
52015;SDS011;38032;53.326;6.472;2022-11-18T11:35:19;20.40;;;12.85;;
52015;SDS011;38032;53.326;6.472;2022-11-18T11:37:51;22.20;;;12.85;;
52015;SDS011;38032;53.326;6.472;2022-11-18T11:40:25;24.33;;;13.60;;
52015;SDS011;38032;53.326;6.472;2022-11-18T11:43:17;23.55;;;13.45;;
52015;SDS011;38032;53.326;6.472;2022-11-18T11:45:53;24.42;;;14.23;;
52015;SDS011;38032;53.326;6.472;2022-11-18T11:51:15;23.58;;;13.77;;
52015;SDS011;38032;53.326;6.472;2022-11-18T11:56:25;26.02;;;14.30;;
52015;SDS011;38032;53.326;6.472;2022-11-18T11:59:04;27.75;;;15.45;;
52015;SDS011;38032;53.326;6.472;2022-11-18T12:04:29;28.23;;;14.90;;
52015;SDS011;38032;53.326;6.472;2022-11-18T12:07:01;32.47;;;17.38;;
52015;SDS011;38032;53.326;6.472;2022-11-18T12:12:02;34.42;;;17.60;;
52015;SDS011;38032;53.326;6.472;2022-11-18T12:14:54;33.17;;;17.27;;
52015;SDS011;38032;53.326;6.472;2022-11-18T12:17:26;34.35;;;17.42;;
52015;SDS011;38032;53.326;6.472;2022-11-18T12:19:59;33.55;;;17.48;;
52015;SDS011;38032;53.326;6.472;2022-11-18T12:23:08;36.55;;;18.17;;
52015;SDS011;38032;53.326;6.472;2022-11-18T12:26:04;36.50;;;18.40;;
52015;SDS011;38032;53.326;6.472;2022-11-18T12:36:28;36.63;;;17.67;;
52015;SDS011;38032;53.326;6.472;2022-11-18T12:38:57;37.33;;;18.35;;
52015;SDS011;38032;53.326;6.472;2022-11-18T12:44:34;33.28;;;17.48;;
52015;SDS011;38032;53.326;6.472;2022-11-18T12:47:02;36.10;;;19.13;;
52015;SDS011;38032;53.326;6.472;2022-11-18T12:51:56;37.58;;;18.08;;
52015;SDS011;38032;53.326;6.472;2022-11-18T12:54:26;31.98;;;17.38;;
52015;SDS011;38032;53.326;6.472;2022-11-18T12:56:56;32.20;;;16.88;;
52015;SDS011;38032;53.326;6.472;2022-11-18T12:59:26;29.48;;;16.77;;
52015;SDS011;38032;53.326;6.472;2022-11-18T13:02:01;31.67;;;16.65;;
52015;SDS011;38032;53.326;6.472;2022-11-18T13:04:30;31.73;;;16.80;;
52015;SDS011;38032;53.326;6.472;2022-11-18T13:06:56;31.40;;;18.42;;
52015;SDS011;38032;53.326;6.472;2022-11-18T13:09:25;31.15;;;17.52;;
52015;SDS011;38032;53.326;6.472;2022-11-18T13:11:57;27.75;;;17.48;;
52015;SDS011;38032;53.326;6.472;2022-11-18T13:14:27;30.60;;;16.65;;
52015;SDS011;38032;53.326;6.472;2022-11-18T13:20:25;29.73;;;15.80;;
52015;SDS011;38032;53.326;6.472;2022-11-18T13:23:01;27.30;;;15.40;;
52015;SDS011;38032;53.326;6.472;2022-11-18T13:25:48;28.58;;;15.82;;
52015;SDS011;38032;53.326;6.472;2022-11-18T13:28:29;29.30;;;17.33;;
52015;SDS011;38032;53.326;6.472;2022-11-18T13:33:53;26.10;;;15.20;;
52015;SDS011;38032;53.326;6.472;2022-11-18T13:36:21;26.95;;;15.90;;
52015;SDS011;38032;53.326;6.472;2022-11-18T13:38:55;27.58;;;15.40;;
52015;SDS011;38032;53.326;6.472;2022-11-18T13:44:09;26.77;;;15.57;;
52015;SDS011;38032;53.326;6.472;2022-11-18T13:46:42;28.10;;;15.48;;
52015;SDS011;38032;53.326;6.472;2022-11-18T13:49:12;26.65;;;15.50;;
52015;SDS011;38032;53.326;6.472;2022-11-18T13:51:40;28.80;;;17.65;;
52015;SDS011;38032;53.326;6.472;2022-11-18T13:54:09;29.35;;;17.08;;
52015;SDS011;38032;53.326;6.472;2022-11-18T13:56:38;27.98;;;16.15;;
52015;SDS011;38032;53.326;6.472;2022-11-18T13:59:04;28.70;;;15.20;;
52015;SDS011;38032;53.326;6.472;2022-11-18T14:01:30;30.80;;;16.13;;
52015;SDS011;38032;53.326;6.472;2022-11-18T14:03:59;25.85;;;14.30;;
52015;SDS011;38032;53.326;6.472;2022-11-18T14:06:27;25.50;;;15.25;;
52015;SDS011;38032;53.326;6.472;2022-11-18T14:09:03;26.77;;;15.40;;
52015;SDS011;38032;53.326;6.472;2022-11-18T14:11:36;25.55;;;15.43;;
52015;SDS011;38032;53.326;6.472;2022-11-18T14:14:04;31.35;;;17.52;;
52015;SDS011;38032;53.326;6.472;2022-11-18T14:16:32;29.45;;;17.27;;
52015;SDS011;38032;53.326;6.472;2022-11-18T14:19:00;30.30;;;17.02;;
52015;SDS011;38032;53.326;6.472;2022-11-18T14:21:28;30.70;;;16.73;;
52015;SDS011;38032;53.326;6.472;2022-11-18T14:23:56;34.85;;;18.27;;
52015;SDS011;38032;53.326;6.472;2022-11-18T14:26:27;33.38;;;19.00;;
52015;SDS011;38032;53.326;6.472;2022-11-18T14:29:02;34.35;;;17.77;;
52015;SDS011;38032;53.326;6.472;2022-11-18T14:32:01;30.88;;;18.10;;
52015;SDS011;38032;53.326;6.472;2022-11-18T14:34:38;31.88;;;18.20;;
52015;SDS011;38032;53.326;6.472;2022-11-18T14:37:08;31.00;;;17.38;;
52015;SDS011;38032;53.326;6.472;2022-11-18T14:39:37;32.97;;;17.95;;
52015;SDS011;38032;53.326;6.472;2022-11-18T14:42:03;30.50;;;18.58;;
52015;SDS011;38032;53.326;6.472;2022-11-18T14:44:31;29.58;;;17.30;;
52015;SDS011;38032;53.326;6.472;2022-11-18T14:46:58;26.92;;;15.98;;
52015;SDS011;38032;53.326;6.472;2022-11-18T14:49:27;30.90;;;17.35;;
52015;SDS011;38032;53.326;6.472;2022-11-18T14:51:55;26.88;;;15.82;;
52015;SDS011;38032;53.326;6.472;2022-11-18T14:54:22;29.50;;;17.48;;
52015;SDS011;38032;53.326;6.472;2022-11-18T14:56:50;27.80;;;16.23;;
52015;SDS011;38032;53.326;6.472;2022-11-18T14:59:18;28.00;;;16.35;;
52015;SDS011;38032;53.326;6.472;2022-11-18T15:01:45;24.73;;;14.98;;
52015;SDS011;38032;53.326;6.472;2022-11-18T15:04:11;25.98;;;15.45;;
52015;SDS011;38032;53.326;6.472;2022-11-18T15:06:39;25.55;;;14.95;;
52015;SDS011;38032;53.326;6.472;2022-11-18T15:09:06;26.23;;;15.57;;
52015;SDS011;38032;53.326;6.472;2022-11-18T15:11:32;26.70;;;15.75;;
52015;SDS011;38032;53.326;6.472;2022-11-18T15:13:58;25.08;;;15.18;;
52015;SDS011;38032;53.326;6.472;2022-11-18T15:16:25;27.27;;;15.32;;
52015;SDS011;38032;53.326;6.472;2022-11-18T15:18:54;25.90;;;15.43;;
52015;SDS011;38032;53.326;6.472;2022-11-18T15:21:21;27.70;;;15.45;;
52015;SDS011;38032;53.326;6.472;2022-11-18T15:23:48;26.17;;;15.50;;
52015;SDS011;38032;53.326;6.472;2022-11-18T15:26:16;24.20;;;15.00;;
52015;SDS011;38032;53.326;6.472;2022-11-18T15:28:45;21.08;;;13.70;;
52015;SDS011;38032;53.326;6.472;2022-11-18T15:31:12;22.35;;;13.48;;
52015;SDS011;38032;53.326;6.472;2022-11-18T15:33:37;20.00;;;13.18;;
52015;SDS011;38032;53.326;6.472;2022-11-18T15:36:03;22.98;;;13.25;;
52015;SDS011;38032;53.326;6.472;2022-11-18T15:38:33;21.23;;;13.18;;
52015;SDS011;38032;53.326;6.472;2022-11-18T15:41:00;21.15;;;13.75;;
52015;SDS011;38032;53.326;6.472;2022-11-18T15:43:26;20.20;;;13.32;;
52015;SDS011;38032;53.326;6.472;2022-11-18T15:45:58;21.63;;;14.55;;